createdAt,value
2018-02-17T00:00:52.479Z,0.00
2018-02-17T00:01:52.490Z,0.00
2018-02-17T00:02:52.512Z,0.00
2018-02-17T00:03:52.526Z,0.00
2018-02-17T00:04:52.547Z,0.00
2018-02-17T00:05:52.560Z,0.00
2018-02-17T00:06:52.583Z,0.00
2018-02-17T00:07:52.600Z,0.00
2018-02-17T00:08:52.622Z,0.00
2018-02-17T00:09:52.638Z,0.00
2018-02-17T00:10:52.653Z,0.00
2018-02-17T00:11:52.666Z,0.00
2018-02-17T00:12:52.688Z,0.00
2018-02-17T00:13:52.705Z,0.00
2018-02-17T00:14:52.716Z,0.00
2018-02-17T00:15:52.734Z,0.00
2018-02-17T00:16:52.757Z,0.00
2018-02-17T00:17:52.776Z,0.00
2018-02-17T00:18:52.786Z,0.00
2018-02-17T00:19:52.804Z,0.00
2018-02-17T00:20:52.827Z,0.00
2018-02-17T00:21:52.843Z,0.00
2018-02-17T00:22:52.855Z,0.00
2018-02-17T00:23:52.873Z,0.00
2018-02-17T00:24:52.895Z,0.00
2018-02-17T00:25:52.908Z,0.00
2018-02-17T00:26:52.930Z,0.00
2018-02-17T00:27:52.941Z,0.00
2018-02-17T00:28:52.965Z,0.00
2018-02-17T00:29:52.977Z,0.00
2018-02-17T00:30:52.999Z,0.00
2018-02-17T00:31:53.019Z,0.00
2018-02-17T00:32:53.030Z,0.00
2018-02-17T00:33:53.048Z,0.00
2018-02-17T00:34:53.067Z,0.00
2018-02-17T00:35:53.084Z,0.00
2018-02-17T00:36:53.096Z,0.00
2018-02-17T00:37:53.115Z,0.00
2018-02-17T00:38:53.136Z,0.00
2018-02-17T00:39:53.148Z,0.00
2018-02-17T00:40:53.171Z,0.00
2018-02-17T00:41:53.188Z,0.00
2018-02-17T00:42:53.199Z,0.00
2018-02-17T00:43:53.218Z,0.00
2018-02-17T00:44:53.240Z,0.00
2018-02-17T00:45:53.257Z,0.00
2018-02-17T00:46:53.268Z,0.00
2018-02-17T00:47:53.294Z,0.00
2018-02-17T00:48:53.302Z,0.00
2018-02-17T00:49:53.324Z,0.00
2018-02-17T00:50:53.336Z,0.00
2018-02-17T00:51:53.360Z,0.00
2018-02-17T00:52:53.373Z,0.00
2018-02-17T00:53:53.393Z,0.00
2018-02-17T00:54:53.404Z,0.00
2018-02-17T00:55:53.422Z,0.00
2018-02-17T00:56:53.444Z,0.00
2018-02-17T00:57:53.462Z,0.00
2018-02-17T00:58:53.474Z,0.00
2018-02-17T00:59:53.489Z,0.00
2018-02-17T01:00:53.513Z,0.00
2018-02-17T01:01:53.529Z,0.00
2018-02-17T01:02:53.541Z,0.00
2018-02-17T01:03:53.557Z,0.00
2018-02-17T01:04:53.580Z,0.00
2018-02-17T01:05:53.591Z,0.00
2018-02-17T01:06:53.614Z,0.00
2018-02-17T01:07:53.626Z,0.00
2018-02-17T01:08:53.648Z,0.00
2018-02-17T01:09:53.659Z,0.00
2018-02-17T01:10:53.683Z,0.00
2018-02-17T01:11:53.699Z,0.00
2018-02-17T01:12:53.710Z,0.00
2018-02-17T01:13:53.734Z,0.00
2018-02-17T01:14:53.744Z,0.00
2018-02-17T01:15:53.768Z,0.00
2018-02-17T01:16:53.779Z,0.00
2018-02-17T01:17:53.799Z,0.00
2018-02-17T01:18:53.812Z,0.00
2018-02-17T01:19:53.830Z,0.00
2018-02-17T01:20:53.852Z,0.00
2018-02-17T01:21:53.863Z,0.00
2018-02-17T01:22:53.885Z,0.00
2018-02-17T01:23:53.898Z,0.00
2018-02-17T01:24:53.918Z,0.00
2018-02-17T01:25:53.930Z,0.00
2018-02-17T01:26:53.954Z,0.00
2018-02-17T01:27:53.963Z,0.00
2018-02-17T01:28:53.987Z,0.00
2018-02-17T01:29:54.002Z,0.00
2018-02-17T01:30:54.014Z,0.00
2018-02-17T01:31:54.032Z,0.00
2018-02-17T01:32:54.056Z,0.00
2018-02-17T01:33:54.063Z,0.00
2018-02-17T01:34:54.086Z,0.00
2018-02-17T01:35:54.098Z,0.00
2018-02-17T01:36:54.121Z,0.00
2018-02-17T01:37:54.136Z,0.00
2018-02-17T01:38:54.150Z,0.00
2018-02-17T01:39:54.170Z,0.00
2018-02-17T01:40:54.188Z,0.00
2018-02-17T01:41:54.204Z,0.00
2018-02-17T01:42:54.216Z,0.00
2018-02-17T01:43:54.233Z,0.00
2018-02-17T01:44:54.255Z,0.00
2018-02-17T01:45:54.265Z,0.00
2018-02-17T01:46:54.287Z,0.00
2018-02-17T01:47:54.299Z,0.00
2018-02-17T01:48:54.326Z,0.00
2018-02-17T01:49:54.337Z,0.00
2018-02-17T01:50:54.349Z,0.00
2018-02-17T01:51:54.367Z,0.00
2018-02-17T01:52:54.389Z,0.00
2018-02-17T01:53:54.408Z,0.00
2018-02-17T01:54:54.415Z,0.00
2018-02-17T01:55:54.432Z,0.00
2018-02-17T01:56:54.456Z,0.00
2018-02-17T01:57:54.471Z,0.00
2018-02-17T01:58:54.482Z,0.00
2018-02-17T01:59:54.500Z,0.00
2018-02-17T02:00:54.524Z,0.00
2018-02-17T02:01:54.532Z,0.00
2018-02-17T02:02:54.555Z,0.00
2018-02-17T02:03:54.569Z,0.00
2018-02-17T02:04:54.592Z,0.00
2018-02-17T02:05:54.604Z,0.00
2018-02-17T02:06:54.615Z,0.00
2018-02-17T02:07:54.638Z,0.00
2018-02-17T02:08:54.649Z,0.00
2018-02-17T02:09:54.670Z,0.00
2018-02-17T02:10:54.681Z,0.00
2018-02-17T02:11:54.705Z,0.00
2018-02-17T02:12:54.715Z,0.00
2018-02-17T02:13:54.738Z,0.00
2018-02-17T02:14:54.748Z,0.00
2018-02-17T02:15:54.771Z,0.00
2018-02-17T02:16:54.781Z,0.00
2018-02-17T02:17:54.804Z,0.00
2018-02-17T02:18:54.822Z,0.00
2018-02-17T02:19:54.840Z,0.00
2018-02-17T02:20:54.848Z,0.00
2018-02-17T02:21:54.870Z,0.00
2018-02-17T02:22:54.882Z,0.00
2018-02-17T02:23:54.899Z,0.00
2018-02-17T02:24:54.920Z,0.00
2018-02-17T02:25:54.935Z,0.00
2018-02-17T02:26:54.948Z,0.00
2018-02-17T02:27:54.966Z,0.00
2018-02-17T02:28:54.988Z,0.00
2018-02-17T02:29:55.003Z,0.00
2018-02-17T02:30:55.014Z,0.00
2018-02-17T02:31:55.037Z,0.00
2018-02-17T02:32:55.054Z,0.00
2018-02-17T02:33:55.070Z,0.00
2018-02-17T02:34:55.080Z,0.00
2018-02-17T02:35:55.097Z,0.00
2018-02-17T02:36:55.121Z,0.00
2018-02-17T02:37:55.132Z,0.00
2018-02-17T02:38:55.147Z,0.00
2018-02-17T02:39:55.163Z,0.00
2018-02-17T02:40:55.186Z,0.00
2018-02-17T02:41:55.197Z,0.00
2018-02-17T02:42:55.220Z,0.00
2018-02-17T02:43:55.233Z,0.00
2018-02-17T02:44:55.252Z,0.00
2018-02-17T02:45:55.261Z,0.00
2018-02-17T02:46:55.286Z,0.00
2018-02-17T02:47:55.302Z,0.00
2018-02-17T02:48:55.317Z,0.00
2018-02-17T02:49:55.328Z,0.00
2018-02-17T02:50:55.350Z,0.00
2018-02-17T02:51:55.362Z,0.00
2018-02-17T02:52:55.384Z,0.00
2018-02-17T02:53:55.401Z,0.00
2018-02-17T02:54:55.417Z,0.00
2018-02-17T02:55:55.432Z,0.00
2018-02-17T02:56:55.445Z,0.00
2018-02-17T02:57:55.467Z,0.00
2018-02-17T02:58:55.485Z,0.00
2018-02-17T02:59:55.501Z,0.00
2018-02-17T03:00:55.512Z,0.00
2018-02-17T03:01:55.533Z,0.00
2018-02-17T03:02:55.542Z,0.00
2018-02-17T03:03:55.560Z,0.00
2018-02-17T03:04:55.577Z,0.00
2018-02-17T03:05:55.599Z,0.00
2018-02-17T03:06:55.609Z,0.00
2018-02-17T03:07:55.636Z,0.00
2018-02-17T03:08:55.643Z,0.00
2018-02-17T03:09:55.658Z,0.00
2018-02-17T03:10:55.674Z,0.00
2018-02-17T03:11:55.690Z,0.00
2018-02-17T03:12:55.713Z,0.00
2018-02-17T03:13:55.729Z,0.00
2018-02-17T03:14:55.739Z,0.00
2018-02-17T03:15:55.756Z,0.00
2018-02-17T03:16:55.780Z,0.00
2018-02-17T03:17:55.793Z,0.00
2018-02-17T03:18:55.805Z,0.00
2018-02-17T03:19:55.827Z,0.00
2018-02-17T03:20:55.842Z,0.00
2018-02-17T03:21:55.852Z,0.00
2018-02-17T03:22:55.869Z,0.00
2018-02-17T03:23:55.886Z,0.00
2018-02-17T03:24:55.909Z,0.00
2018-02-17T03:25:55.918Z,0.00
2018-02-17T03:26:55.940Z,0.00
2018-02-17T03:27:55.951Z,0.00
2018-02-17T03:28:55.974Z,0.00
2018-02-17T03:29:55.986Z,0.00
2018-02-17T03:30:56.005Z,0.00
2018-02-17T03:31:56.017Z,0.00
2018-02-17T03:32:56.038Z,0.00
2018-02-17T03:33:56.049Z,0.00
2018-02-17T03:34:56.071Z,0.00
2018-02-17T03:35:56.088Z,0.00
2018-02-17T03:36:56.104Z,0.00
2018-02-17T03:37:56.120Z,0.00
2018-02-17T03:38:56.131Z,0.00
2018-02-17T03:39:56.148Z,0.00
2018-02-17T03:40:56.170Z,0.00
2018-02-17T03:41:56.179Z,0.00
2018-02-17T03:42:56.195Z,0.00
2018-02-17T03:43:56.221Z,0.00
2018-02-17T03:44:56.228Z,0.00
2018-02-17T03:45:56.253Z,0.00
2018-02-17T03:46:56.263Z,0.00
2018-02-17T03:47:56.281Z,0.00
2018-02-17T03:48:56.293Z,0.00
2018-02-17T03:49:56.313Z,0.00
2018-02-17T03:50:56.324Z,0.00
2018-02-17T03:51:56.346Z,0.00
2018-02-17T03:52:56.362Z,0.00
2018-02-17T03:53:56.371Z,0.00
2018-02-17T03:54:56.393Z,0.00
2018-02-17T03:55:56.404Z,0.00
2018-02-17T03:56:56.425Z,0.00
2018-02-17T03:57:56.441Z,0.00
2018-02-17T03:58:56.457Z,0.00
2018-02-17T03:59:56.468Z,0.00
2018-02-17T04:00:56.490Z,0.00
2018-02-17T04:01:56.505Z,0.00
2018-02-17T04:02:56.518Z,0.00
2018-02-17T04:03:56.533Z,0.00
2018-02-17T04:04:56.556Z,0.00
2018-02-17T04:05:56.570Z,0.00
2018-02-17T04:06:56.580Z,0.00
2018-02-17T04:07:56.596Z,0.00
2018-02-17T04:08:56.613Z,0.00
2018-02-17T04:09:56.628Z,0.00
2018-02-17T04:10:56.644Z,0.00
2018-02-17T04:11:56.665Z,0.00
2018-02-17T04:12:56.676Z,0.00
2018-02-17T04:13:56.692Z,0.00
2018-02-17T04:14:56.714Z,0.00
2018-02-17T04:15:56.731Z,0.00
2018-02-17T04:16:56.741Z,0.00
2018-02-17T04:17:56.758Z,0.00
2018-02-17T04:18:56.778Z,0.00
2018-02-17T04:19:56.795Z,0.00
2018-02-17T04:20:56.806Z,0.00
2018-02-17T04:21:56.820Z,0.00
2018-02-17T04:22:56.842Z,0.00
2018-02-17T04:23:56.859Z,0.00
2018-02-17T04:24:56.870Z,0.00
2018-02-17T04:25:56.884Z,0.00
2018-02-17T04:26:56.901Z,0.00
2018-02-17T04:27:56.926Z,0.00
2018-02-17T04:28:56.941Z,0.00
2018-02-17T04:29:56.949Z,0.00
2018-02-17T04:30:56.971Z,0.00
2018-02-17T04:31:56.981Z,0.00
2018-02-17T04:32:57.004Z,0.00
2018-02-17T04:33:57.019Z,0.00
2018-02-17T04:34:57.030Z,0.00
2018-02-17T04:35:57.046Z,0.00
2018-02-17T04:36:57.067Z,0.00
2018-02-17T04:37:57.083Z,0.00
2018-02-17T04:38:57.094Z,0.00
2018-02-17T04:39:57.112Z,0.00
2018-02-17T04:40:57.133Z,0.00
2018-02-17T04:41:57.147Z,0.00
2018-02-17T04:42:57.168Z,0.00
2018-02-17T04:43:57.175Z,0.00
2018-02-17T04:44:57.197Z,0.00
2018-02-17T04:45:57.213Z,0.00
2018-02-17T04:46:57.224Z,0.00
2018-02-17T04:47:57.247Z,0.00
2018-02-17T04:48:57.256Z,0.00
2018-02-17T04:49:57.279Z,0.00
2018-02-17T04:50:57.287Z,0.00
2018-02-17T04:51:57.310Z,0.00
2018-02-17T04:52:57.321Z,0.00
2018-02-17T04:53:57.342Z,0.00
2018-02-17T04:54:57.351Z,0.00
2018-02-17T04:55:57.374Z,0.00
2018-02-17T04:56:57.384Z,0.00
2018-02-17T04:57:57.400Z,0.00
2018-02-17T04:58:57.421Z,0.00
2018-02-17T04:59:57.437Z,0.00
2018-02-17T05:00:57.448Z,0.00
2018-02-17T05:01:57.468Z,0.00
2018-02-17T05:02:57.478Z,0.00
2018-02-17T05:03:57.495Z,0.00
2018-02-17T05:04:57.517Z,0.00
2018-02-17T05:05:57.525Z,0.00
2018-02-17T05:06:57.553Z,0.00
2018-02-17T05:07:57.558Z,0.00
2018-02-17T05:08:57.585Z,0.00
2018-02-17T05:09:57.594Z,0.00
2018-02-17T05:10:57.612Z,0.00
2018-02-17T05:11:57.623Z,0.00
2018-02-17T05:12:57.644Z,0.00
2018-02-17T05:13:57.659Z,0.00
2018-02-17T05:14:57.670Z,0.00
2018-02-17T05:15:57.686Z,0.00
2018-02-17T05:16:57.707Z,0.00
2018-02-17T05:17:57.717Z,0.00
2018-02-17T05:18:57.739Z,0.00
2018-02-17T05:19:57.750Z,0.00
2018-02-17T05:20:57.773Z,0.00
2018-02-17T05:21:57.786Z,0.00
2018-02-17T05:22:57.797Z,0.00
2018-02-17T05:23:57.817Z,0.00
2018-02-17T05:24:57.836Z,0.00
2018-02-17T05:25:57.852Z,0.00
2018-02-17T05:26:57.863Z,0.00
2018-02-17T05:27:57.878Z,0.00
2018-02-17T05:28:57.898Z,0.00
2018-02-17T05:29:57.909Z,0.00
2018-02-17T05:30:57.930Z,0.00
2018-02-17T05:31:57.942Z,0.00
2018-02-17T05:32:57.963Z,0.00
2018-02-17T05:33:57.981Z,0.00
2018-02-17T05:34:57.989Z,0.00
2018-02-17T05:35:58.010Z,0.00
2018-02-17T05:36:58.022Z,0.00
2018-02-17T05:37:58.043Z,0.00
2018-02-17T05:38:58.053Z,0.00
2018-02-17T05:39:58.077Z,0.00
2018-02-17T05:40:58.085Z,0.00
2018-02-17T05:41:58.105Z,0.00
2018-02-17T05:42:58.118Z,0.00
2018-02-17T05:43:58.132Z,0.00
2018-02-17T05:44:58.154Z,0.00
2018-02-17T05:45:58.170Z,0.00
2018-02-17T05:46:58.180Z,0.00
2018-02-17T05:47:58.197Z,0.00
2018-02-17T05:48:58.219Z,0.00
2018-02-17T05:49:58.234Z,0.00
2018-02-17T05:50:58.244Z,0.00
2018-02-17T05:51:58.260Z,0.00
2018-02-17T05:52:58.284Z,0.00
2018-02-17T05:53:58.292Z,0.00
2018-02-17T05:54:58.312Z,0.00
2018-02-17T05:55:58.324Z,0.00
2018-02-17T05:56:58.347Z,0.00
2018-02-17T05:57:58.355Z,0.00
2018-02-17T05:58:58.378Z,0.00
2018-02-17T05:59:58.399Z,0.00
2018-02-17T06:00:58.404Z,0.00
2018-02-17T06:01:58.426Z,0.00
2018-02-17T06:02:58.438Z,0.00
2018-02-17T06:03:58.460Z,0.00
2018-02-17T06:04:58.509Z,0.00
2018-02-17T06:05:58.488Z,0.00
2018-02-17T06:06:58.498Z,0.00
2018-02-17T06:07:58.515Z,0.00
2018-02-17T06:08:58.539Z,4.00
2018-02-17T06:09:58.552Z,4.00
2018-02-17T06:10:58.565Z,4.00
2018-02-17T06:11:58.580Z,0.00
2018-02-17T06:12:58.600Z,4.00
2018-02-17T06:13:58.615Z,4.00
2018-02-17T06:14:58.626Z,4.00
2018-02-17T06:15:58.645Z,8.00
2018-02-17T06:16:58.673Z,8.00
2018-02-17T06:17:58.675Z,8.00
2018-02-17T06:18:58.695Z,8.00
2018-02-17T06:19:58.706Z,12.00
2018-02-17T06:20:58.728Z,12.00
2018-02-17T06:21:58.738Z,12.00
2018-02-17T06:22:58.759Z,16.00
2018-02-17T06:23:58.775Z,20.00
2018-02-17T06:24:58.787Z,24.00
2018-02-17T06:25:58.801Z,24.00
2018-02-17T06:26:58.824Z,28.00
2018-02-17T06:27:58.840Z,36.00
2018-02-17T06:28:58.850Z,40.00
2018-02-17T06:29:58.865Z,44.00
2018-02-17T06:30:58.887Z,52.00
2018-02-17T06:31:58.900Z,60.00
2018-02-17T06:32:58.923Z,64.00
2018-02-17T06:33:58.934Z,72.00
2018-02-17T06:34:58.945Z,84.00
2018-02-17T06:35:58.962Z,88.00
2018-02-17T06:36:58.983Z,100.00
2018-02-17T06:37:58.999Z,108.00
2018-02-17T06:38:59.008Z,116.00
2018-02-17T06:39:59.030Z,132.00
2018-02-17T06:40:59.043Z,140.00
2018-02-17T06:41:59.063Z,148.00
2018-02-17T06:42:59.073Z,160.00
2018-02-17T06:43:59.095Z,172.00
2018-02-17T06:44:59.106Z,192.00
2018-02-17T06:45:59.126Z,208.00
2018-02-17T06:46:59.137Z,228.00
2018-02-17T06:47:59.153Z,244.00
2018-02-17T06:48:59.180Z,264.00
2018-02-17T06:49:59.225Z,280.00
2018-02-17T06:50:59.200Z,300.00
2018-02-17T06:51:59.216Z,320.00
2018-02-17T06:52:59.238Z,340.00
2018-02-17T06:53:59.253Z,364.00
2018-02-17T06:54:59.265Z,392.00
2018-02-17T06:55:59.280Z,424.00
2018-02-17T06:56:59.353Z,448.00
2018-02-17T06:57:59.312Z,476.00
2018-02-17T06:58:59.334Z,496.00
2018-02-17T06:59:59.346Z,524.00
2018-02-17T07:00:59.369Z,552.00
2018-02-17T07:01:59.375Z,584.00
2018-02-17T07:02:59.400Z,616.00
2018-02-17T07:03:59.415Z,660.00
2018-02-17T07:04:59.427Z,700.00
2018-02-17T07:05:59.445Z,740.00
2018-02-17T07:06:59.457Z,776.00
2018-02-17T07:07:59.478Z,812.00
2018-02-17T07:08:59.489Z,844.00
2018-02-17T07:09:59.554Z,872.00
2018-02-17T07:10:59.521Z,900.00
2018-02-17T07:11:59.537Z,932.00
2018-02-17T07:12:59.559Z,972.00
2018-02-17T07:13:59.574Z,1020.00
2018-02-17T07:14:59.586Z,1076.00
2018-02-17T07:15:59.601Z,1128.00
2018-02-17T07:16:59.623Z,1184.00
2018-02-17T07:17:59.639Z,1236.00
2018-02-17T07:18:59.649Z,1292.00
2018-02-17T07:19:59.666Z,1336.00
2018-02-17T07:20:59.688Z,1380.00
2018-02-17T07:21:59.697Z,1424.00
2018-02-17T07:22:59.720Z,1468.00
2018-02-17T07:23:59.731Z,1520.00
2018-02-17T07:24:59.752Z,1580.00
2018-02-17T07:25:59.762Z,1636.00
2018-02-17T07:26:59.785Z,1696.00
2018-02-17T07:27:59.800Z,1756.00
2018-02-17T07:28:59.811Z,1804.00
2018-02-17T07:29:59.827Z,1852.00
2018-02-17T07:30:59.848Z,1904.00
2018-02-17T07:31:59.866Z,1980.00
2018-02-17T07:32:59.877Z,2060.00
2018-02-17T07:33:59.896Z,2148.00
2018-02-17T07:34:59.914Z,2228.00
2018-02-17T07:35:59.924Z,2304.00
2018-02-17T07:36:59.948Z,2372.00
2018-02-17T07:37:59.964Z,2440.00
2018-02-17T07:38:59.973Z,2492.00
2018-02-17T07:39:59.989Z,2524.00
2018-02-17T07:41:00.012Z,2548.00
2018-02-17T07:42:00.041Z,2552.00
2018-02-17T07:43:00.038Z,2568.00
2018-02-17T07:44:00.061Z,2592.00
2018-02-17T07:45:00.079Z,2636.00
2018-02-17T07:46:00.093Z,2696.00
2018-02-17T07:47:00.105Z,2752.00
2018-02-17T07:48:00.126Z,2804.00
2018-02-17T07:49:00.137Z,2848.00
2018-02-17T07:50:00.161Z,2896.00
2018-02-17T07:51:00.170Z,2928.00
2018-02-17T07:52:00.191Z,2952.00
2018-02-17T07:53:00.203Z,2960.00
2018-02-17T07:54:00.224Z,2964.00
2018-02-17T07:55:00.234Z,2960.00
2018-02-17T07:56:00.257Z,2952.00
2018-02-17T07:57:00.268Z,2956.00
2018-02-17T07:58:00.290Z,2960.00
2018-02-17T07:59:00.332Z,2964.00
2018-02-17T08:00:00.318Z,2976.00
2018-02-17T08:01:00.340Z,2984.00
2018-02-17T08:02:00.401Z,2996.00
2018-02-17T08:03:00.377Z,2996.00
2018-02-17T08:04:00.388Z,2992.00
2018-02-17T08:05:00.407Z,2980.00
2018-02-17T08:06:00.415Z,2972.00
2018-02-17T08:07:00.440Z,2972.00
2018-02-17T08:08:00.449Z,2996.00
2018-02-17T08:09:00.472Z,3036.00
2018-02-17T08:10:00.486Z,3096.00
2018-02-17T08:11:00.505Z,3172.00
2018-02-17T08:12:00.516Z,3252.00
2018-02-17T08:13:00.541Z,3324.00
2018-02-17T08:14:00.549Z,3388.00
2018-02-17T08:15:00.571Z,3460.00
2018-02-17T08:16:00.583Z,3528.00
2018-02-17T08:17:00.607Z,3612.00
2018-02-17T08:18:00.621Z,3708.00
2018-02-17T08:19:00.634Z,3816.00
2018-02-17T08:20:00.650Z,3940.00
2018-02-17T08:21:00.672Z,4060.00
2018-02-17T08:22:00.688Z,4180.00
2018-02-17T08:23:00.700Z,4292.00
2018-02-17T08:24:00.716Z,4396.00
2018-02-17T08:25:00.741Z,4504.00
2018-02-17T08:26:00.756Z,4616.00
2018-02-17T08:27:00.768Z,4736.00
2018-02-17T08:28:00.785Z,4852.00
2018-02-17T08:29:00.807Z,4948.00
2018-02-17T08:30:00.824Z,5028.00
2018-02-17T08:31:00.835Z,5096.00
2018-02-17T08:32:00.863Z,5144.00
2018-02-17T08:33:00.873Z,5172.00
2018-02-17T08:34:00.888Z,5228.00
2018-02-17T08:35:00.909Z,5264.00
2018-02-17T08:36:00.927Z,5300.00
2018-02-17T08:37:00.938Z,5340.00
2018-02-17T08:38:00.954Z,5392.00
2018-02-17T08:39:00.980Z,5452.00
2018-02-17T08:40:00.995Z,5520.00
2018-02-17T08:41:01.007Z,5568.00
2018-02-17T08:42:01.025Z,5592.00
2018-02-17T08:43:01.050Z,5600.00
2018-02-17T08:44:01.064Z,5576.00
2018-02-17T08:45:01.076Z,5516.00
2018-02-17T08:46:01.093Z,5444.00
2018-02-17T08:47:01.115Z,5376.00
2018-02-17T08:48:01.127Z,5336.00
2018-02-17T08:49:01.152Z,5344.00
2018-02-17T08:50:01.169Z,5376.00
2018-02-17T08:51:01.181Z,5444.00
2018-02-17T08:52:01.197Z,5516.00
2018-02-17T08:53:01.216Z,5600.00
2018-02-17T08:54:01.232Z,5708.00
2018-02-17T08:55:01.249Z,5836.00
2018-02-17T08:56:01.272Z,5980.00
2018-02-17T08:57:01.284Z,6124.00
2018-02-17T08:58:01.303Z,6232.00
2018-02-17T08:59:01.326Z,6312.00
2018-02-17T09:00:01.346Z,6388.00
2018-02-17T09:01:01.356Z,6476.00
2018-02-17T09:02:01.374Z,6576.00
2018-02-17T09:03:01.395Z,6704.00
2018-02-17T09:04:01.413Z,6836.00
2018-02-17T09:05:01.427Z,7092.00
2018-02-17T09:06:01.449Z,7308.00
2018-02-17T09:07:01.466Z,7500.00
2018-02-17T09:08:01.485Z,7592.00
2018-02-17T09:09:01.502Z,7656.00
2018-02-17T09:10:01.520Z,7792.00
2018-02-17T09:11:01.532Z,7952.00
2018-02-17T09:12:01.556Z,8108.00
2018-02-17T09:13:01.568Z,8220.00
2018-02-17T09:14:01.591Z,8160.00
2018-02-17T09:15:01.604Z,8360.00
2018-02-17T09:16:01.629Z,8476.00
2018-02-17T09:17:01.640Z,8776.00
2018-02-17T09:18:01.662Z,9080.00
2018-02-17T09:19:01.676Z,9100.00
2018-02-17T09:20:01.694Z,9144.00
2018-02-17T09:21:01.717Z,9024.00
2018-02-17T09:22:01.736Z,9060.00
2018-02-17T09:23:01.766Z,9300.00
2018-02-17T09:24:01.766Z,9652.00
2018-02-17T09:25:01.788Z,9860.00
2018-02-17T09:26:01.808Z,10220.00
2018-02-17T09:27:01.820Z,10600.00
2018-02-17T09:28:01.839Z,10720.00
2018-02-17T09:29:01.863Z,11000.00
2018-02-17T09:30:01.881Z,11524.00
2018-02-17T09:31:01.899Z,11772.00
2018-02-17T09:32:01.913Z,12144.00
2018-02-17T09:33:01.937Z,13068.00
2018-02-17T09:34:01.955Z,13656.00
2018-02-17T09:35:01.973Z,14552.00
2018-02-17T09:36:01.992Z,14472.00
2018-02-17T09:37:02.004Z,15108.00
2018-02-17T09:38:02.026Z,14720.00
2018-02-17T09:39:02.040Z,14352.00
2018-02-17T09:40:02.065Z,14644.00
2018-02-17T09:41:02.086Z,14548.00
2018-02-17T09:42:02.097Z,14508.00
2018-02-17T09:43:02.121Z,14212.00
2018-02-17T09:44:02.140Z,14444.00
2018-02-17T09:45:02.153Z,16512.00
2018-02-17T09:46:02.195Z,18528.00
2018-02-17T09:47:02.196Z,19488.00
2018-02-17T09:48:02.215Z,20416.00
2018-02-17T09:49:02.229Z,21408.00
2018-02-17T09:50:02.248Z,22432.00
2018-02-17T09:51:02.272Z,23296.00
2018-02-17T09:52:02.286Z,24256.00
2018-02-17T09:53:02.306Z,26176.00
2018-02-17T09:54:02.328Z,25568.00
2018-02-17T09:55:02.343Z,27360.00
2018-02-17T09:56:02.368Z,26336.00
2018-02-17T09:57:02.383Z,26592.00
2018-02-17T09:58:02.401Z,25184.00
2018-02-17T09:59:02.422Z,24352.00
2018-02-17T10:00:02.448Z,22208.00
2018-02-17T10:01:02.461Z,25824.00
2018-02-17T10:02:02.481Z,24480.00
2018-02-17T10:03:02.506Z,23360.00
2018-02-17T10:04:02.525Z,21344.00
2018-02-17T10:05:02.542Z,21376.00
2018-02-17T10:06:02.566Z,22144.00
2018-02-17T10:07:02.581Z,22432.00
2018-02-17T10:08:02.608Z,21376.00
2018-02-17T10:09:02.621Z,20096.00
2018-02-17T10:10:02.644Z,19136.00
2018-02-17T10:11:02.668Z,17088.00
2018-02-17T10:12:02.689Z,16296.00
2018-02-17T10:13:02.712Z,16368.00
2018-02-17T10:14:02.729Z,17344.00
2018-02-17T10:15:02.749Z,18592.00
2018-02-17T10:16:02.765Z,19168.00
2018-02-17T10:17:02.791Z,18976.00
2018-02-17T10:18:02.818Z,21312.00
2018-02-17T10:19:02.825Z,22528.00
2018-02-17T10:20:02.846Z,27136.00
2018-02-17T10:21:02.874Z,25632.00
2018-02-17T10:22:02.888Z,21408.00
2018-02-17T10:23:02.914Z,21440.00
2018-02-17T10:24:02.933Z,17664.00
2018-02-17T10:25:02.956Z,16960.00
2018-02-17T10:26:02.975Z,17984.00
2018-02-17T10:27:02.996Z,16008.00
2018-02-17T10:28:03.013Z,17056.00
2018-02-17T10:29:03.035Z,17024.00
2018-02-17T10:30:03.059Z,17056.00
2018-02-17T10:31:03.076Z,19232.00
2018-02-17T10:32:03.101Z,18400.00
2018-02-17T10:33:03.116Z,21984.00
2018-02-17T10:34:03.142Z,21856.00
2018-02-17T10:35:03.158Z,23456.00
2018-02-17T10:36:03.185Z,26944.00
2018-02-17T10:37:03.201Z,28192.00
2018-02-17T10:38:03.220Z,31168.00
2018-02-17T10:39:03.246Z,31936.00
2018-02-17T10:40:03.270Z,30944.00
2018-02-17T10:41:03.283Z,29952.00
2018-02-17T10:42:03.303Z,30624.00
2018-02-17T10:43:03.326Z,31520.00
2018-02-17T10:44:03.351Z,29024.00
2018-02-17T10:45:03.373Z,29536.00
2018-02-17T10:46:03.388Z,27680.00
2018-02-17T10:47:03.415Z,27296.00
2018-02-17T10:48:03.431Z,28672.00
2018-02-17T10:49:03.459Z,28544.00
2018-02-17T10:50:03.477Z,28960.00
2018-02-17T10:51:03.502Z,28512.00
2018-02-17T10:52:03.566Z,29088.00
2018-02-17T10:53:03.546Z,30272.00
2018-02-17T10:54:03.565Z,30240.00
2018-02-17T10:55:03.581Z,29696.00
2018-02-17T10:56:03.603Z,31392.00
2018-02-17T10:57:03.633Z,32224.00
2018-02-17T10:58:03.652Z,31168.00
2018-02-17T10:59:03.668Z,29728.00
2018-02-17T11:00:03.691Z,30240.00
2018-02-17T11:01:03.718Z,30528.00
2018-02-17T11:02:03.739Z,26336.00
2018-02-17T11:03:03.759Z,33952.00
2018-02-17T11:04:03.779Z,37088.00
2018-02-17T11:05:03.808Z,36480.00
2018-02-17T11:06:03.828Z,37824.00
2018-02-17T11:07:03.845Z,34688.00
2018-02-17T11:08:03.866Z,33696.00
2018-02-17T11:09:03.897Z,31776.00
2018-02-17T11:10:03.917Z,32736.00
2018-02-17T11:11:03.935Z,35488.00
2018-02-17T11:12:03.963Z,38560.00
2018-02-17T11:13:03.980Z,40096.00
2018-02-17T11:14:04.005Z,41248.00
2018-02-17T11:15:04.030Z,41088.00
2018-02-17T11:16:04.053Z,42144.00
2018-02-17T11:17:04.070Z,43392.00
2018-02-17T11:18:04.092Z,43840.00
2018-02-17T11:19:04.121Z,43360.00
2018-02-17T11:20:04.143Z,41824.00
2018-02-17T11:21:04.161Z,41376.00
2018-02-17T11:22:04.183Z,41248.00
2018-02-17T11:23:04.213Z,39168.00
2018-02-17T11:24:04.235Z,38592.00
2018-02-17T11:25:04.255Z,36512.00
2018-02-17T11:26:04.276Z,32064.00
2018-02-17T11:27:04.308Z,30720.00
2018-02-17T11:28:04.335Z,31072.00
2018-02-17T11:29:04.355Z,28704.00
2018-02-17T11:30:04.376Z,28448.00
2018-02-17T11:31:04.394Z,26048.00
2018-02-17T11:32:04.424Z,25440.00
2018-02-17T11:33:04.442Z,23168.00
2018-02-17T11:34:04.470Z,21984.00
2018-02-17T11:35:04.523Z,21536.00
2018-02-17T11:36:04.520Z,21088.00
2018-02-17T11:37:04.536Z,21344.00
2018-02-17T11:38:04.564Z,20224.00
2018-02-17T11:39:04.584Z,18688.00
2018-02-17T11:40:04.610Z,16864.00
2018-02-17T11:41:04.627Z,16704.00
2018-02-17T11:42:04.656Z,16608.00
2018-02-17T11:43:04.673Z,17760.00
2018-02-17T11:44:04.698Z,17984.00
2018-02-17T11:45:04.726Z,19136.00
2018-02-17T11:46:04.784Z,20384.00
2018-02-17T11:47:04.774Z,22624.00
2018-02-17T11:48:04.788Z,22560.00
2018-02-17T11:49:04.821Z,24224.00
2018-02-17T11:50:04.834Z,22976.00
2018-02-17T11:51:04.864Z,23232.00
2018-02-17T11:52:04.878Z,23488.00
2018-02-17T11:53:04.907Z,27200.00
2018-02-17T11:54:04.923Z,29184.00
2018-02-17T11:55:04.950Z,33152.00
2018-02-17T11:56:04.969Z,31776.00
2018-02-17T11:57:04.996Z,30784.00
2018-02-17T11:58:05.014Z,34784.00
2018-02-17T11:59:05.042Z,36320.00
2018-02-17T12:00:05.058Z,40192.00
2018-02-17T12:01:05.085Z,43584.00
2018-02-17T12:02:05.107Z,41088.00
2018-02-17T12:03:05.124Z,38784.00
2018-02-17T12:04:05.148Z,39616.00
2018-02-17T12:05:05.176Z,41312.00
2018-02-17T12:06:05.198Z,40768.00
2018-02-17T12:07:05.217Z,39232.00
2018-02-17T12:08:05.245Z,38368.00
2018-02-17T12:09:05.268Z,38816.00
2018-02-17T12:10:05.316Z,41184.00
2018-02-17T12:11:05.318Z,42240.00
2018-02-17T12:12:05.332Z,42784.00
2018-02-17T12:13:05.360Z,40960.00
2018-02-17T12:14:05.376Z,40512.00
2018-02-17T12:15:05.410Z,39744.00
2018-02-17T12:16:05.429Z,39200.00
2018-02-17T12:17:05.454Z,36736.00
2018-02-17T12:18:05.471Z,34592.00
2018-02-17T12:19:05.499Z,33504.00
2018-02-17T12:20:05.524Z,32128.00
2018-02-17T12:21:05.604Z,31552.00
2018-02-17T12:22:05.565Z,29280.00
2018-02-17T12:23:05.593Z,28160.00
2018-02-17T12:24:05.611Z,29952.00
2018-02-17T12:25:05.641Z,27456.00
2018-02-17T12:26:05.664Z,27680.00
2018-02-17T12:27:05.683Z,27648.00
2018-02-17T12:28:05.707Z,29280.00
2018-02-17T12:29:05.734Z,29184.00
2018-02-17T12:30:05.765Z,29504.00
2018-02-17T12:31:05.776Z,29024.00
2018-02-17T12:32:05.804Z,30016.00
2018-02-17T12:33:05.823Z,28864.00
2018-02-17T12:34:05.852Z,27456.00
2018-02-17T12:35:05.868Z,26528.00
2018-02-17T12:36:05.896Z,24640.00
2018-02-17T12:37:05.916Z,23072.00